Impacts METAR Board INFO
IDs:

KBTR - Baton Rouge/Ryan Fld, LA, US

Updated at: 0544 UTC 25 Feb 2018
Potential Impact None Slight Moderate High
Time24/17Z 24/18Z 24/19Z 24/20Z 24/21Z 24/22Z 24/23Z 25/00Z 25/01Z 25/02Z 25/03Z 25/04Z 25/05Z
VIS10 10 10 10 10 10 10 10 10 10 10 9 9
CIG30 36 43 -- 60 70 60 30 36 36 39 -- 18
CoverBKNBKNBKNSCTBKNBKNBKNBKNOVCOVCBKNSCTOVC
FltCatMVFRVFRVFRVFRVFRVFRVFRMVFRVFRVFRVFRVFRMVFR
WX--------------------------
WDir190180170190170190190190190190180180190
WSpd17 18 15 21 19 17 16 15 13 13 13 10 13
WGst25 26 28 28 -- 28 24 -- -- -- -- -- --
Raw hourly METARs
KBTR 241653Z 19017G25KT 10SM FEW021 BKN030 BKN034 27/19 A3006 RMK AO2 SLP178 T02670189
KBTR 241753Z 18018G26KT 10SM BKN036 28/18 A3003 RMK AO2 PK WND 16026/1748 SLP167 T02830178 10283 20211 58019
KBTR 241853Z COR 17015G28KT 10SM BKN043 BKN060 29/18 A2999 RMK AO2 PK WND 19028/1848 SLP155 T02890178
KBTR 241953Z 19021G28KT 10SM SCT042 27/17 A2996 RMK AO2 PK WND 18030/1932 SLP146 T02720172
KBTR 242053Z 17019KT 10SM SCT045 BKN060 28/17 A2995 RMK AO2 PK WND 18027/2025 SLP140 T02780172 56027
KBTR 242153Z 19017G28KT 10SM SCT043 BKN070 28/16 A2994 RMK AO2 PK WND 19028/2110 SLP138 T02780156
KBTR 242253Z 19016G24KT 10SM FEW047 BKN060 BKN070 26/17 A2996 RMK AO2 PK WND 20026/2213 SLP143 T02610167
KBTR 242353Z 19015KT 10SM BKN030 BKN045 25/18 A2997 RMK AO2 SLP147 T02500183 10289 20250 53006
KBTR 250053Z 19013KT 10SM SCT028 OVC036 24/18 A2998 RMK AO2 SLP151 T02440183
KBTR 250153Z 19013KT 10SM SCT028 OVC036 23/19 A2999 RMK AO2 RAB11E26 SLP155 P0000 T02330194
KBTR 250253Z 18013KT 10SM SCT025 BKN039 23/19 A3000 RMK AO2 SLP159 60000 T02330194 51012
KBTR 250353Z 18010KT 9SM SCT024 23/19 A3000 RMK AO2 SLP159 T02330194
KBTR 250453Z 19013KT 9SM BKN018 OVC024 23/20 A3001 RMK AO2 SLP163 T02330200